METAR Data
IDs: Format: Raw Decoded Include TAF

Data at: 1922 UTC 14 Dec 2018

KGOP 141915Z AUTO 31012G21KT 10SM OVC015 07/03 A3005 RMK AO2
KGOP 141855Z AUTO 31018G23KT 10SM 07/03 A3005 RMK AO2
KGOP 141835Z AUTO 31015G21KT 10SM 07/03 A3005 RMK AO2
KGOP 141815Z AUTO 30014G21KT 10SM OVC015 07/03 A3006 RMK AO2
KGOP 141755Z AUTO 31015G21KT 10SM OVC014 06/03 A3006 RMK AO2
KGOP 141735Z AUTO 31013G23KT 10SM OVC014 06/03 A3007 RMK AO2
KGOP 141715Z AUTO 32015G22KT 10SM OVC015 06/03 A3008 RMK AO2
KGOP 141655Z AUTO 31015G22KT 10SM OVC015 06/02 A3007 RMK AO2
KGOP 141635Z AUTO 30018G24KT 10SM OVC014 06/03 A3006 RMK AO2
KGOP 141615Z AUTO 31015G23KT 10SM OVC014 06/02 A3006 RMK AO2
KGOP 141555Z AUTO 32014G22KT 10SM OVC014 05/02 A3006 RMK AO2
KGOP 141535Z AUTO 31016G22KT 10SM OVC014 05/02 A3005 RMK AO2
KGOP 141515Z AUTO 31013G22KT 10SM OVC013 05/02 A3004 RMK AO2
KGOP 141455Z AUTO 31013G22KT 10SM OVC012 05/02 A3004 RMK AO2
KGOP 141435Z AUTO 31012G17KT 10SM OVC012 04/02 A3003 RMK AO2
KGOP 141415Z AUTO 31013G19KT 9SM OVC011 04/03 A3003 RMK AO2
KGOP 141355Z AUTO 30015G23KT 7SM BKN012 OVC016 04/02 A3002 RMK AO2
KGOP 141335Z AUTO 31014G20KT 9SM OVC014 04/02 A3002 RMK AO2
KGOP 141315Z AUTO 31013G25KT 7SM OVC014 04/02 A3001 RMK AO2
KGOP 141255Z AUTO 31014G21KT 10SM OVC013 05/02 A3000 RMK AO2
KGOP 141235Z AUTO 31013G22KT 10SM OVC013 05/02 A2999 RMK AO2
KGOP 141215Z AUTO 30016G23KT 10SM OVC014 05/02 A2998 RMK AO2
KGOP 141155Z AUTO 30015G22KT 10SM OVC014 05/02 A2997 RMK AO2
KGOP 141135Z AUTO 30012G25KT 10SM OVC014 05/02 A2996 RMK AO2
KGOP 141115Z AUTO 30016G24KT 10SM OVC015 05/03 A2995 RMK AO2
KGOP 141055Z AUTO 30014G24KT 10SM OVC012 04/03 A2994 RMK AO2
KGOP 141035Z AUTO 30015G22KT 7SM OVC011 04/03 A2993 RMK AO2
KGOP 141015Z AUTO 30016G29KT 7SM OVC011 04/03 A2992 RMK AO2
KGOP 140955Z AUTO 30016G25KT 5SM BR BKN009 OVC014 04/04 A2992 RMK AO2
KGOP 140935Z AUTO 30016G25KT 3SM BR BKN009 OVC013 05/04 A2991 RMK AO2
KGOP 140915Z AUTO 29013G20KT 2SM -UP BKN008 OVC013 05/04 A2990 RMK AO2
KGOP 140855Z AUTO 29012G18KT 2SM BR BKN009 BKN012 OVC018 05/04 A2990 RMK AO2
KGOP 140835Z AUTO 29014G22KT 6SM BR OVC016 05/03 A2990 RMK AO2
KGOP 140815Z AUTO 28012G25KT 10SM SCT013 BKN019 OVC029 04/02 A2990 RMK AO2
KGOP 140755Z AUTO 29012G23KT 9SM BKN012 OVC018 04/02 A2989 RMK AO2
KGOP 140735Z AUTO 29012G23KT 10SM BKN012 OVC018 04/02 A2989 RMK AO2
KGOP 140715Z AUTO 29015G21KT 10SM OVC012 04/02 A2988 RMK AO2
KGOP 140655Z AUTO 29014G27KT 6SM BR OVC012 04/02 A2988 RMK AO2
KGOP 140635Z AUTO 29015G21KT 5SM BR BKN011 OVC025 04/03 A2987 RMK AO2
KGOP 140615Z AUTO 30016G24KT 6SM BR BKN010 OVC016 04/03 A2987 RMK AO2
KGOP 140555Z AUTO 29010G23KT 3SM BR OVC010 04/03 A2986 RMK AO2
KGOP 140535Z AUTO 30014G21KT 3SM BR BKN009 OVC012 05/04 A2986 RMK AO2
KGOP 140515Z AUTO 30016G25KT 4SM BR BKN009 BKN014 OVC020 05/04 A2986 RMK AO2
KGOP 140455Z AUTO 29012G18KT 4SM BR BKN009 BKN018 OVC023 04/03 A2986 RMK AO2
KGOP 140435Z AUTO 29010G21KT 4SM BR BKN009 OVC014 05/03 A2985 RMK AO2
KGOP 140415Z AUTO 30014G23KT 4SM BR OVC014 05/03 A2985 RMK AO2
KGOP 140355Z AUTO 29015G26KT 6SM BR OVC014 06/04 A2984 RMK AO2
KGOP 140335Z AUTO 29012G23KT 9SM BKN014 OVC020 06/04 A2984 RMK AO2
KGOP 140315Z AUTO 29013G21KT 10SM OVC014 06/04 A2983 RMK AO2
KGOP 140255Z AUTO 29015G22KT 9SM OVC013 06/04 A2982 RMK AO2
KGOP 140235Z AUTO 29011G21KT 9SM BKN009 OVC014 06/04 A2982 RMK AO2
KGOP 140215Z AUTO 27012G17KT 2 1/2SM -UP SCT008 OVC013 05/04 A2982 RMK AO2
KGOP 140155Z AUTO 27010G17KT 5SM BR SCT009 BKN012 OVC023 05/03 A2982 RMK AO2
KGOP 140135Z AUTO 27013G20KT 7SM BKN012 BKN021 05/03 A2982 RMK AO2
KGOP 140115Z AUTO 28010G21KT 10SM OVC014 05/03 A2982 RMK AO2
KGOP 140055Z AUTO 27011G20KT 8SM -UP OVC015 05/03 A2982 RMK AO2
KGOP 140035Z AUTO 27013G21KT 9SM OVC016 05/03 A2982 RMK AO2
KGOP 140010Z AUTO 27009G22KT 5SM -UP BKN018 OVC023 06/03 A2982 RMK AO2
KGOP 132355Z AUTO 26014KT 10SM OVC019 06/02 A2982 RMK AO2
KGOP 132335Z AUTO 27011G19KT 10SM BKN020 BKN026 07/02 A2982 RMK AO2
KGOP 132315Z AUTO 26017KT 10SM BKN017 OVC022 07/03 A2982 RMK AO2
KGOP 132255Z AUTO 26014G24KT 10SM OVC018 08/04 A2981 RMK AO2
KGOP 132235Z AUTO 28013G20KT 10SM BKN018 BKN026 OVC033 09/04 A2980 RMK AO2
KGOP 132215Z AUTO 27015G22KT 10SM SCT020 BKN025 BKN033 10/05 A2979 RMK AO2
KGOP 132155Z AUTO 27013G21KT 10SM SCT023 SCT070 12/06 A2978 RMK AO2
KGOP 132135Z AUTO 25017KT 10SM FEW075 13/04 A2977 RMK AO2
KGOP 132115Z AUTO 27012G26KT 10SM FEW050 FEW080 12/04 A2976 RMK AO2
KGOP 132055Z AUTO 25018KT 10SM FEW050 SCT110 15/04 A2973 RMK AO2 LTG DSNT N
KGOP 132035Z AUTO 24014G20KT 10SM CLR 16/02 A2973 RMK AO2 LTG DSNT N
KGOP 132015Z AUTO 25013G22KT 10SM CLR 16/03 A2973 RMK AO2
KGOP 131955Z AUTO 24016G24KT 10SM CLR 16/04 A2973 RMK AO2 LTG DSNT N AND S
KGOP 131935Z AUTO 25017G24KT 10SM CLR 17/04 A2972 RMK AO2
KGOP 131915Z AUTO 26015KT 10SM CLR 17/05 A2972 RMK AO2
KGOP 131855Z AUTO 25010KT 10SM FEW040 FEW100 16/06 A2972 RMK AO2
KGOP 131835Z AUTO 28007G16KT 10SM SCT040 BKN100 17/07 A2973 RMK AO2
KGOP 131815Z AUTO 27014G20KT 10SM CLR 16/06 A2974 RMK AO2
KGOP 131755Z AUTO 28009G16KT 10SM FEW090 16/07 A2974 RMK AO2
KGOP 131735Z AUTO 28010KT 10SM FEW090 16/07 A2974 RMK AO2
KGOP 131715Z AUTO 28009G17KT 10SM FEW080 16/07 A2975 RMK AO2
KGOP 131655Z AUTO 26013KT 10SM FEW080 17/08 A2975 RMK AO2 LTG DSNT N AND NE
KGOP 131635Z AUTO 26013G18KT 10SM CLR 17/08 A2974 RMK AO2
KGOP 131615Z AUTO 26012G17KT 10SM FEW095 17/09 A2974 RMK AO2
KGOP 131555Z AUTO 25010KT 10SM CLR 17/10 A2973 RMK AO2
KGOP 131535Z AUTO 23010KT 10SM CLR 17/10 A2973 RMK AO2
KGOP 131515Z AUTO 21007KT 10SM CLR 16/12 A2973 RMK AO2
KGOP 131455Z AUTO 20006KT 10SM CLR 15/12 A2973 RMK AO2
KGOP 131435Z AUTO 15004KT 10SM CLR 15/13 A2973 RMK AO2
KGOP 131415Z AUTO 17004KT 10SM CLR 14/13 A2972 RMK AO2
KGOP 131355Z AUTO 19006KT 9SM CLR 14/14 A2972 RMK AO2
KGOP 131335Z AUTO 15005KT 9SM CLR 14/14 A2972 RMK AO2
KGOP 131315Z AUTO 14004KT 6SM BR CLR 14/14 A2971 RMK AO2
KGOP 131255Z AUTO 14004KT 6SM BR CLR 13/13 A2971 RMK AO2
KGOP 131235Z AUTO 00000KT 5SM BR CLR 13/13 A2971 RMK AO2
KGOP 131215Z AUTO 15004KT 5SM BR CLR 13/13 A2969 RMK AO2
KGOP 131155Z AUTO 00000KT 6SM BR CLR 14/14 A2970 RMK AO2
KGOP 131135Z AUTO 19006KT 9SM CLR 14/14 A2969 RMK AO2
KGOP 131115Z AUTO 22005KT 9SM FEW009 14/14 A2969 RMK AO2
KGOP 131055Z AUTO 20005KT 10SM SCT009 15/15 A2970 RMK AO2
KGOP 131035Z AUTO 21005KT 10SM SCT007 15/15 A2970 RMK AO2
KGOP 131015Z AUTO 17004KT 10SM OVC007 16/15 A2971 RMK AO2
KGOP 130955Z AUTO 00000KT 10SM OVC007 16/15 A2971 RMK AO2
KGOP 130935Z AUTO 18003KT 10SM BKN007 OVC011 16/15 A2972 RMK AO2 LTG DSNT E AND SE
KGOP 130915Z AUTO 19006KT 10SM OVC007 16/15 A2974 RMK AO2
KGOP 130855Z AUTO 18007KT 10SM OVC007 16/15 A2975 RMK AO2
KGOP 130835Z AUTO 17003KT 10SM BKN007 BKN013 15/15 A2976 RMK AO2
KGOP 130815Z AUTO 15007KT 10SM SCT006 BKN014 15/15 A2976 RMK AO2
KGOP 130755Z AUTO 16005KT 10SM BKN006 15/15 A2978 RMK AO2
KGOP 130735Z AUTO 17009KT 10SM BKN005 BKN009 15/14 A2979 RMK AO2